logo
Search for airport 
image banner adimage banner adimage banner ad
image banner ad

ZK44 - Sungam ni (KP-0044)

Located in S, Korea, Democratic People's Republic of

ICAO - , IATA -

Data provided by Airmate  

General information

Coordinates: N41°40'27" E129°40'37"
Elevation is 92 feet MSL.
Magnetic variation is -10° East
View others Airports in Hamgyongbuk-do

Operational data

Special qualification required
Current time UTC:
Current local time:
Weather at : - ( 0 km )
METAR: YAMB 251545Z AUTO 00000KT 6000 // FEW011 09/09 Q1022 RF00.0/000.0
View NOTAMs / SUP AIP / TFR affecting this airport [VIEW]
Communications frequencies: [VIEW]

Runways:

RWY identifierQFULength (ft)Width (ft)SurfaceLDA (ft)
14132°2994180ASPH
32312°2994180ASPH

Airport contact information

Address: S Korea, Democratic People's Republic of

Satellite view of ZK44